Eureka, CA

11:06 AM PST on February 25, 2017 (GMT -0800)
Henderson Center | | Change Station

Elev 125 ft 40.78 °N, 124.17 °W | Updated 11 seconds ago

Clear
Clear
53.1 °F
Feels Like 53.1 °F
N
4.0
Wind Variable Wind from NNW
Gusts 5.8 mph

Today
High -- | Low -- °F
--% Chance of Precip.
Yesterday
High -- | Low -- °F
Precip. -- in
Pressure 30.17 in
Visibility 10.0 miles
Clouds Clear
Dew Point 31 °F
Humidity 42%
Rainfall 0.08 in
Snow Depth Not available.
6:56 AM 6:03 PM
Waning Crescent, 1% visible
METAR KACV 251853Z AUTO 33009KT 10SM CLR 09/04 A3015 RMK AO2 SLP217 T00940039
Pressure 30.17 in
Visibility 10.0 miles
Clouds Clear
Dew Point 31 °F
Humidity 42%
Rainfall 0.08 in
Snow Depth Not available.
6:56 AM 6:03 PM
Waning Crescent, 1% visible
METAR KACV 251853Z AUTO 33009KT 10SM CLR 09/04 A3015 RMK AO2 SLP217 T00940039

Get Your Daily Forecast Email!

Thanks for signing up!

Be on the lookout for a verification email in your inbox.

You'll start receiving the daily forecast at 8 AM.

×

10-Day Weather Forecast

Almanac

Astronomy

Feb. 25, 2017 Rise Set
Actual Time
Civil Twilight
Nautical Twilight
Astronomical Twilight
Moon
Length of Visible Light
Length of Day
Tomorrow will be .
, % of the Moon is Illuminated

Today's Extremes

State Highs State Lows

Community

WunderPhotos

Upload Photos

1,962,540 photos uploaded!

WunderBlog® & News

Nearby

Air Quality

  Air Quality AQ Index Pollutant
Not available.

Snow Depth

Station Depth Elevation

Earthquake Activity

City Distance Mag. Time & Date
Minimum magnitude displayed is 2.5.

Coastal Water Temperatures

Place Temperature

Stations

Nearby Weather Stations

Station Location Temp. Windchill Dew Point Humidity Wind Precip. Elev Updated Type
                   

Watches & Warnings

There are currently no watches in effect.